Time;durP1;ratioP1;P1;durP2;ratioP2;P2;SDS_P1;SDS_P2;PMS_P1;PMS_P2;Temp;Humidity;BMP_temperature;BMP_pressure;BME280_temperature;BME280_humidity;BME280_pressure;Samples;Min_cycle;Max_cycle;Signal;HPM_P1;HPM_P2
2022/01/10 00:01:07;;;;;;;23.50;6.05;;;1.70;99.90;;;;;;5014000;28;20046;-71
2022/01/10 00:03:33;;;;;;;25.35;6.28;;;1.70;99.90;;;;;;5016705;28;20093;-70
2022/01/10 00:05:59;;;;;;;22.77;5.95;;;1.60;99.90;;;;;;5004772;28;20367;-70
2022/01/10 00:08:25;;;;;;;25.08;5.95;;;1.60;99.90;;;;;;5006290;28;20046;-71
2022/01/10 00:10:51;;;;;;;22.02;6.20;;;1.60;99.90;;;;;;5006501;28;20038;-71
2022/01/10 00:13:19;;;;;;;31.90;6.55;;;1.60;99.90;;;;;;5001085;28;20375;-71
2022/01/10 00:15:46;;;;;;;29.02;5.93;;;1.60;99.90;;;;;;5022909;28;20192;-70
2022/01/10 00:18:12;;;;;;;20.70;6.20;;;1.50;99.90;;;;;;5015396;28;20133;-70
2022/01/10 00:20:38;;;;;;;20.55;5.70;;;1.40;99.90;;;;;;5020574;28;20053;-71
2022/01/10 00:23:04;;;;;;;28.83;6.45;;;1.40;99.90;;;;;;4990098;28;20034;-71
2022/01/10 00:25:30;;;;;;;20.05;6.25;;;1.40;99.90;;;;;;5018583;28;20060;-71
2022/01/10 00:27:56;;;;;;;24.85;6.38;;;1.40;99.90;;;;;;5009565;28;20554;-71
2022/01/10 00:30:24;;;;;;;21.03;6.10;;;1.40;99.90;;;;;;5012176;28;20069;-70
2022/01/10 00:32:51;;;;;;;24.42;6.10;;;1.40;99.90;;;;;;5007911;28;20049;-71
2022/01/10 00:35:18;;;;;;;25.75;6.45;;;1.30;99.90;;;;;;5020634;28;20045;-70
2022/01/10 00:37:44;;;;;;;30.27;6.70;;;1.20;99.90;;;;;;4996715;28;20138;-69
2022/01/10 00:40:12;;;;;;;21.67;6.63;;;1.30;99.90;;;;;;5007508;28;20046;-69
2022/01/10 00:42:39;;;;;;;25.75;6.25;;;1.20;99.90;;;;;;5001394;28;20068;-69
2022/01/10 00:45:13;;;;;;;24.67;6.63;;;1.10;99.90;;;;;;5001976;28;20046;-70
2022/01/10 00:47:40;;;;;;;27.63;6.60;;;1.00;99.90;;;;;;4994221;28;20046;-69
2022/01/10 00:50:06;;;;;;;23.75;6.72;;;1.00;99.90;;;;;;5020985;28;20100;-69
2022/01/10 00:52:32;;;;;;;22.70;6.63;;;1.00;99.90;;;;;;5017601;28;20046;-71
2022/01/10 00:54:58;;;;;;;31.20;6.13;;;1.00;99.90;;;;;;5014217;28;20104;-70
2022/01/10 00:57:24;;;;;;;17.85;6.28;;;0.90;99.90;;;;;;4984002;28;20046;-70
2022/01/10 00:59:49;;;;;;;23.25;6.22;;;0.90;99.90;;;;;;5015197;28;20047;-70
2022/01/10 01:02:15;;;;;;;26.00;7.10;;;0.90;99.90;;;;;;5000443;28;20496;-71
2022/01/10 01:04:41;;;;;;;22.13;6.40;;;0.80;99.90;;;;;;5001053;28;20078;-71
2022/01/10 01:07:07;;;;;;;23.05;6.70;;;0.80;99.90;;;;;;5006867;28;20483;-72
2022/01/10 01:09:33;;;;;;;24.95;6.25;;;0.80;99.90;;;;;;4975019;28;20054;-71
2022/01/10 01:17:11;;;;;;;20.77;6.63;;;0.70;99.90;;;;;;5012019;28;20440;-72
2022/01/10 01:25:07;;;;;;;37.08;7.82;;;0.70;99.90;;;;;;4995056;28;20049;-71
2022/01/10 01:27:33;;;;;;;32.30;7.38;;;0.60;99.90;;;;;;5001667;28;20100;-71
2022/01/10 01:29:58;;;;;;;26.00;7.05;;;0.60;99.90;;;;;;5001155;28;20465;-70
2022/01/10 01:32:25;;;;;;;27.73;7.53;;;0.70;99.90;;;;;;5020991;28;20049;-70
2022/01/10 01:34:51;;;;;;;29.35;8.05;;;0.60;99.90;;;;;;5013477;28;20049;-70
2022/01/10 01:37:16;;;;;;;28.58;8.63;;;0.70;99.90;;;;;;5015333;28;20057;-70
2022/01/10 01:39:42;;;;;;;36.45;8.82;;;0.60;99.90;;;;;;5008462;28;20042;-69
2022/01/10 01:44:52;;;;;;;30.25;8.40;;;0.60;99.90;;;;;;5003903;28;20042;-71
2022/01/10 01:47:18;;;;;;;32.72;8.50;;;0.60;99.90;;;;;;5019026;28;20152;-70
2022/01/10 01:49:44;;;;;;;40.83;8.98;;;0.60;99.90;;;;;;4998995;28;20122;-70
2022/01/10 01:52:10;;;;;;;32.28;8.90;;;0.60;99.90;;;;;;4989912;28;20065;-71
2022/01/10 01:54:36;;;;;;;35.00;8.23;;;0.70;99.90;;;;;;4999654;28;20042;-71
2022/01/10 01:57:02;;;;;;;29.25;7.97;;;0.70;99.90;;;;;;4996496;28;20125;-70
2022/01/10 01:59:28;;;;;;;44.77;9.63;;;0.70;99.90;;;;;;5003567;28;20123;-71
2022/01/10 02:01:54;;;;;;;34.72;9.82;;;0.60;99.90;;;;;;5018309;28;20294;-69
2022/01/10 02:04:20;;;;;;;35.90;8.93;;;0.70;99.90;;;;;;5002218;28;20494;-71
2022/01/10 02:06:46;;;;;;;34.08;8.88;;;0.50;99.90;;;;;;4999401;28;20401;-71
2022/01/10 02:09:15;;;;;;;29.30;8.65;;;0.50;99.90;;;;;;5011302;28;20406;-69
2022/01/10 02:11:41;;;;;;;29.17;9.05;;;0.50;99.90;;;;;;5018699;28;20053;-70
2022/01/10 02:14:08;;;;;;;30.73;8.35;;;0.60;99.90;;;;;;5022724;28;20107;-70
2022/01/10 02:16:43;;;;;;;34.97;8.48;;;0.50;99.90;;;;;;5013095;28;20091;-70
2022/01/10 02:19:10;;;;;;;29.58;8.25;;;0.40;99.90;;;;;;5025746;28;20057;-69
2022/01/10 02:21:37;;;;;;;31.33;9.30;;;0.40;99.90;;;;;;4998967;28;20057;-71
2022/01/10 02:24:04;;;;;;;26.48;8.50;;;0.40;99.90;;;;;;5005167;28;20050;-69
2022/01/10 02:26:31;;;;;;;25.02;8.27;;;0.40;99.90;;;;;;5020883;28;20054;-71
2022/01/10 02:28:57;;;;;;;28.98;9.05;;;0.30;99.90;;;;;;5001309;28;20050;-71
2022/01/10 02:31:24;;;;;;;29.52;8.77;;;0.30;99.90;;;;;;4998968;28;20045;-71
2022/01/10 02:33:51;;;;;;;39.08;9.68;;;0.20;99.90;;;;;;5008740;28;20057;-71
2022/01/10 02:39:08;;;;;;;28.42;8.50;;;0.30;99.90;;;;;;5007795;28;20046;-74
2022/01/10 02:41:36;;;;;;;28.73;8.90;;;0.20;99.90;;;;;;4995500;28;20046;-72
2022/01/10 02:44:05;;;;;;;36.83;9.10;;;0.20;99.90;;;;;;4995052;28;20520;-73
2022/01/10 02:46:34;;;;;;;44.50;9.40;;;0.20;99.90;;;;;;4996166;28;20050;-73
2022/01/10 02:49:01;;;;;;;33.83;8.60;;;0.20;99.90;;;;;;4995728;28;20105;-73
2022/01/10 02:51:26;;;;;;;28.92;9.13;;;0.20;99.90;;;;;;4995919;28;20053;-73
2022/01/10 02:53:52;;;;;;;23.77;8.80;;;0.10;99.90;;;;;;4995534;28;20426;-74
2022/01/10 02:56:18;;;;;;;28.55;8.90;;;0.10;99.90;;;;;;4995647;28;20053;-73
2022/01/10 02:58:44;;;;;;;31.77;8.32;;;0.10;99.90;;;;;;4995424;28;20050;-73
2022/01/10 03:01:09;;;;;;;29.45;8.73;;;0.10;99.90;;;;;;4995300;28;20153;-73
2022/01/10 03:03:35;;;;;;;38.38;8.88;;;0.10;99.90;;;;;;4994622;28;20108;-73
2022/01/10 03:06:01;;;;;;;34.45;8.82;;;0.00;99.90;;;;;;4996053;28;20416;-71
2022/01/10 03:08:29;;;;;;;32.28;9.13;;;0.00;99.90;;;;;;4995250;28;20053;-73
2022/01/10 03:10:55;;;;;;;;;;;0.00;99.90;;;;;;4996336;28;20046;-72
2022/01/10 03:13:21;;;;;;;23.70;7.97;;;-0.10;99.90;;;;;;4995530;28;19983;-73
2022/01/10 03:15:46;;;;;;;30.73;8.73;;;-0.10;99.90;;;;;;4995541;28;20050;-73
2022/01/10 03:18:12;;;;;;;27.45;8.40;;;-0.10;99.90;;;;;;5010549;28;20502;-73
2022/01/10 03:20:38;;;;;;;37.70;10.63;;;-0.10;99.90;;;;;;5010462;28;20068;-73
2022/01/10 03:23:04;;;;;;;36.00;10.35;;;-0.10;99.90;;;;;;4995799;28;20034;-72
2022/01/10 03:25:30;;;;;;;44.35;9.75;;;-0.10;99.90;;;;;;5010233;28;20073;-73
2022/01/10 03:27:56;;;;;;;32.20;9.82;;;-0.10;99.90;;;;;;5010287;28;20112;-73
2022/01/10 03:30:22;;;;;;;32.65;9.85;;;-0.10;99.90;;;;;;4995298;28;20061;-73
2022/01/10 03:32:50;;;;;;;36.78;9.27;;;-0.10;99.90;;;;;;4995073;28;20128;-74
2022/01/10 03:35:17;;;;;;;29.77;9.68;;;-0.10;99.90;;;;;;4994546;28;20132;-73
2022/01/10 03:37:43;;;;;;;40.80;10.10;;;-0.10;99.90;;;;;;5010039;28;20149;-73
2022/01/10 03:40:10;;;;;;;28.90;9.48;;;-0.10;99.90;;;;;;4994831;28;20078;-73
2022/01/10 03:42:36;;;;;;;41.97;11.50;;;-0.20;99.90;;;;;;4993862;28;20062;-73
2022/01/10 03:45:04;;;;;;;33.67;10.00;;;-0.10;99.90;;;;;;4993895;28;20108;-73
2022/01/10 03:47:30;;;;;;;34.00;9.93;;;-0.10;99.90;;;;;;4995219;28;20053;-73
2022/01/10 03:49:56;;;;;;;40.25;10.00;;;-0.20;99.90;;;;;;5009905;28;20050;-73
2022/01/10 03:52:22;;;;;;;31.25;9.15;;;-0.20;99.90;;;;;;4995094;28;20109;-73
2022/01/10 03:54:48;;;;;;;37.28;9.27;;;-0.20;99.90;;;;;;5009679;28;20438;-73
2022/01/10 03:57:14;;;;;;;29.13;9.73;;;-0.20;99.90;;;;;;4994984;28;20046;-73
2022/01/10 03:59:40;;;;;;;36.55;9.75;;;-0.30;99.90;;;;;;4993397;28;20459;-72
2022/01/10 04:02:06;;;;;;;39.10;9.85;;;-0.30;99.90;;;;;;5009731;28;20066;-72
2022/01/10 04:04:33;;;;;;;37.70;10.45;;;-0.30;99.90;;;;;;4994764;28;20054;-72
2022/01/10 04:06:59;;;;;;;30.38;10.13;;;-0.30;99.90;;;;;;4993642;28;20479;-73
2022/01/10 04:09:25;;;;;;;39.97;10.35;;;-0.40;99.90;;;;;;4994339;28;20054;-73
2022/01/10 04:11:51;;;;;;;37.53;10.48;;;-0.30;99.90;;;;;;5009570;28;20060;-73
2022/01/10 04:14:16;;;;;;;35.83;11.70;;;-0.40;99.90;;;;;;4994269;28;20054;-74
2022/01/10 04:16:42;;;;;;;38.28;10.65;;;-0.40;99.90;;;;;;4993695;28;20046;-74
2022/01/10 04:19:14;;;;;;;36.92;10.52;;;-0.50;99.90;;;;;;4994477;28;20052;-73
2022/01/10 04:21:40;;;;;;;44.83;11.85;;;-0.40;99.90;;;;;;5008584;28;20479;-73
2022/01/10 04:24:05;;;;;;;48.88;11.18;;;-0.40;99.90;;;;;;4994318;28;20399;-74
2022/01/10 04:26:31;;;;;;;39.35;12.30;;;-0.40;99.90;;;;;;4993115;28;20137;-73
2022/01/10 04:28:57;;;;;;;39.17;12.15;;;-0.50;99.90;;;;;;4993891;28;20364;-74
2022/01/10 04:31:23;;;;;;;37.20;11.73;;;-0.50;99.90;;;;;;5009172;28;20111;-73
2022/01/10 04:33:49;;;;;;;34.80;11.57;;;-0.50;99.90;;;;;;4993102;28;20109;-74
2022/01/10 04:36:15;;;;;;;31.13;11.23;;;-0.50;99.90;;;;;;4992487;28;20133;-73
2022/01/10 04:38:42;;;;;;;34.92;11.85;;;-0.50;99.90;;;;;;5009171;28;20419;-74
2022/01/10 04:41:09;;;;;;;32.75;12.07;;;-0.50;99.90;;;;;;4994149;28;20046;-73
2022/01/10 04:43:36;;;;;;;36.75;11.20;;;-0.50;99.90;;;;;;5009183;28;20058;-73
2022/01/10 04:46:02;;;;;;;27.15;11.38;;;-0.60;99.90;;;;;;5009723;28;20054;-73
2022/01/10 04:48:28;;;;;;;43.60;12.18;;;-0.60;99.90;;;;;;5008847;28;20465;-73
2022/01/10 04:53:25;;;;;;;35.15;13.25;;;-0.60;99.90;;;;;;4993931;28;20443;-73
2022/01/10 04:55:51;;;;;;;37.10;13.30;;;-0.60;99.90;;;;;;5008783;28;20082;-74
2022/01/10 04:58:17;;;;;;;37.50;12.75;;;-0.60;99.90;;;;;;5009036;28;20038;-74
2022/01/10 05:00:43;;;;;;;34.63;11.82;;;-0.50;99.90;;;;;;5008579;28;20455;-73
2022/01/10 05:03:09;;;;;;;38.22;12.15;;;-0.60;99.90;;;;;;4993889;28;20078;-74
2022/01/10 05:05:35;;;;;;;35.10;12.00;;;-0.60;99.90;;;;;;4976361;28;20104;-74
2022/01/10 05:08:01;;;;;;;37.08;12.55;;;-0.60;99.90;;;;;;4993554;28;20053;-74
2022/01/10 05:10:26;;;;;;;33.30;12.15;;;-0.70;99.90;;;;;;4993042;28;20039;-74
2022/01/10 05:12:52;;;;;;;46.20;13.70;;;-0.70;99.90;;;;;;5008536;28;20137;-74
2022/01/10 05:15:18;;;;;;;40.85;14.00;;;-0.80;99.90;;;;;;5008409;28;20042;-74
2022/01/10 05:17:44;;;;;;;40.58;13.40;;;-0.80;99.90;;;;;;5008459;28;20046;-73
2022/01/10 05:20:10;;;;;;;37.03;13.10;;;-0.70;99.90;;;;;;4992851;28;20450;-74
2022/01/10 05:22:36;;;;;;;40.45;13.13;;;-0.60;99.90;;;;;;4993183;28;20510;-74
2022/01/10 05:25:03;;;;;;;42.95;13.35;;;-0.70;99.90;;;;;;5008971;28;20070;-74
2022/01/10 05:27:28;;;;;;;49.33;15.27;;;-0.70;99.90;;;;;;5008412;28;20104;-74
2022/01/10 05:29:54;;;;;;;39.53;14.45;;;-0.70;99.90;;;;;;4992098;28;20129;-74
2022/01/10 05:32:20;;;;;;;40.40;14.23;;;-0.70;99.90;;;;;;5008369;28;20054;-75
2022/01/10 05:34:46;;;;;;;40.05;14.48;;;-0.60;99.90;;;;;;5008926;28;20455;-75
2022/01/10 05:37:11;;;;;;;33.85;13.75;;;-0.60;99.90;;;;;;4993216;28;20058;-74
2022/01/10 05:39:37;;;;;;;41.25;15.45;;;-0.60;99.90;;;;;;5008770;28;20086;-74
2022/01/10 05:42:03;;;;;;;53.03;15.15;;;-0.70;99.90;;;;;;5008463;28;20050;-75
2022/01/10 05:44:29;;;;;;;47.05;15.88;;;-0.70;99.90;;;;;;5008610;28;20093;-75
2022/01/10 05:46:55;;;;;;;51.05;16.20;;;-0.60;99.90;;;;;;4992254;28;20089;-75
2022/01/10 05:49:26;;;;;;;66.68;17.20;;;-0.60;99.90;;;;;;5008579;28;20148;-75
2022/01/10 05:51:52;;;;;;;66.88;17.02;;;-0.70;99.90;;;;;;4992195;28;20038;-74
2022/01/10 05:54:18;;;;;;;57.97;18.10;;;-0.60;99.90;;;;;;4993693;28;20046;-75
2022/01/10 05:56:44;;;;;;;84.25;19.48;;;-0.60;99.90;;;;;;4996548;28;20049;-76
2022/01/10 05:59:09;;;;;;;52.20;19.02;;;-0.50;99.90;;;;;;5010862;28;20451;-76
2022/01/10 06:01:35;;;;;;;45.40;17.13;;;-0.60;99.90;;;;;;5011463;28;20053;-75
2022/01/10 06:04:04;;;;;;;53.50;18.30;;;-0.60;99.90;;;;;;4993726;28;20054;-75
2022/01/10 06:06:30;;;;;;;43.65;18.60;;;-0.50;99.90;;;;;;5008598;28;20057;-75
2022/01/10 06:08:57;;;;;;;52.33;17.83;;;-0.50;99.90;;;;;;4992185;28;20046;-76
2022/01/10 06:11:26;;;;;;;41.97;18.55;;;-0.50;99.90;;;;;;5007630;28;20061;-75
2022/01/10 06:13:52;;;;;;;54.28;19.30;;;-0.50;99.90;;;;;;4991893;28;20046;-74
2022/01/10 06:16:17;;;;;;;53.80;19.90;;;-0.40;99.90;;;;;;5007995;28;20046;-74
2022/01/10 06:18:43;;;;;;;47.90;19.35;;;-0.40;99.90;;;;;;5007656;28;20054;-74
2022/01/10 06:21:09;;;;;;;47.97;19.65;;;-0.50;99.90;;;;;;4975339;28;20094;-74
2022/01/10 06:23:35;;;;;;;49.97;19.00;;;-0.50;99.90;;;;;;4991365;28;20094;-75
2022/01/10 06:26:01;;;;;;;46.33;19.05;;;-0.60;99.90;;;;;;5007711;28;20121;-74
2022/01/10 06:28:26;;;;;;;45.38;19.15;;;-0.60;99.90;;;;;;5008704;28;20046;-74
2022/01/10 06:30:52;;;;;;;55.58;18.98;;;-0.60;99.90;;;;;;4991482;28;20050;-75
2022/01/10 06:33:18;;;;;;;49.80;19.23;;;-0.60;99.90;;;;;;5007797;28;20047;-75
2022/01/10 06:35:43;;;;;;;63.63;20.02;;;-0.60;99.90;;;;;;5007290;28;20046;-76
2022/01/10 06:38:09;;;;;;;49.08;19.25;;;-0.60;99.90;;;;;;4990721;28;20065;-75
2022/01/10 06:40:35;;;;;;;95.57;19.02;;;-0.60;99.90;;;;;;4992516;28;20068;-74
2022/01/10 06:43:01;;;;;;;82.18;20.38;;;-0.60;99.90;;;;;;4992048;28;20069;-75
2022/01/10 06:45:26;;;;;;;71.15;19.92;;;-0.60;99.90;;;;;;4996605;28;20057;-76
2022/01/10 06:47:52;;;;;;;52.55;19.08;;;-0.60;99.90;;;;;;5011354;28;20471;-75
2022/01/10 06:50:18;;;;;;;48.45;19.00;;;-0.40;99.90;;;;;;4978721;28;20200;-75
2022/01/10 06:52:44;;;;;;;66.80;21.70;;;-0.50;99.90;;;;;;4995649;28;20399;-74
2022/01/10 06:55:09;;;;;;;81.47;20.98;;;-0.40;99.90;;;;;;5011821;28;20046;-76
2022/01/10 06:57:35;;;;;;;56.22;20.67;;;-0.50;99.90;;;;;;4996585;28;20458;-73
2022/01/10 07:00:03;;;;;;;61.95;19.75;;;-0.50;99.90;;;;;;5011109;28;20046;-75
2022/01/10 07:02:29;;;;;;;46.40;19.08;;;-0.40;99.90;;;;;;4994454;28;20097;-75
2022/01/10 07:04:55;;;;;;;139.98;22.45;;;-0.40;99.90;;;;;;4994658;28;20501;-74
2022/01/10 07:07:21;;;;;;;74.97;20.52;;;-0.30;99.90;;;;;;4995719;28;20044;-76
2022/01/10 07:09:47;;;;;;;60.67;21.48;;;-0.40;99.90;;;;;;4994365;28;20034;-75
2022/01/10 07:12:12;;;;;;;63.70;23.33;;;-0.30;99.90;;;;;;5010790;28;20049;-76
2022/01/10 07:14:39;;;;;;;62.60;22.67;;;-0.30;99.90;;;;;;5010635;28;20490;-75
2022/01/10 07:17:05;;;;;;;54.63;21.63;;;-0.30;99.90;;;;;;5010817;28;20084;-76
2022/01/10 07:19:31;;;;;;;61.85;23.48;;;-0.40;99.90;;;;;;4994307;28;20054;-74
2022/01/10 07:21:57;;;;;;;59.13;22.17;;;-0.40;99.90;;;;;;5010507;28;20154;-74
2022/01/10 07:24:23;;;;;;;61.75;22.60;;;-0.40;99.90;;;;;;4994039;28;20084;-74
2022/01/10 07:26:49;;;;;;;63.05;23.40;;;-0.40;99.90;;;;;;4993915;28;20061;-74
2022/01/10 07:29:15;;;;;;;55.30;22.35;;;-0.40;99.90;;;;;;4995179;28;20399;-76
2022/01/10 07:31:41;;;;;;;53.13;21.45;;;-0.40;99.90;;;;;;5010293;28;20204;-75
2022/01/10 07:34:10;;;;;;;55.22;21.00;;;-0.50;99.90;;;;;;4977585;28;20057;-75
2022/01/10 07:36:36;;;;;;;56.30;21.20;;;-0.40;99.90;;;;;;5009836;28;20566;-76
2022/01/10 07:39:03;;;;;;;58.40;21.70;;;-0.50;99.90;;;;;;4995258;28;20141;-75
2022/01/10 07:41:28;;;;;;;60.83;21.70;;;-0.60;99.90;;;;;;4995246;28;20049;-75
2022/01/10 07:43:56;;;;;;;55.97;20.88;;;-0.70;99.90;;;;;;5010513;28;20046;-75
2022/01/10 07:46:22;;;;;;;;;;;-0.70;99.90;;;;;;4994570;28;20062;-75
2022/01/10 07:48:48;;;;;;;56.03;21.08;;;-0.70;99.90;;;;;;4995259;28;19932;-76
2022/01/10 07:51:15;;;;;;;56.38;21.02;;;-0.60;99.90;;;;;;4995307;28;20069;-76
2022/01/10 07:53:41;;;;;;;66.07;22.00;;;-0.80;99.90;;;;;;5010423;28;20050;-77
2022/01/10 07:56:08;;;;;;;63.10;22.33;;;-0.80;99.90;;;;;;5010991;28;20054;-76
2022/01/10 07:58:35;;;;;;;51.58;20.85;;;-0.80;99.90;;;;;;4999167;28;20066;-76
2022/01/10 08:01:01;;;;;;;45.22;19.98;;;-0.90;99.90;;;;;;4999194;28;20046;-76
2022/01/10 08:03:27;;;;;;;52.55;20.45;;;-0.80;99.90;;;;;;5017616;28;20133;-76
2022/01/10 08:05:53;;;;;;;56.90;20.88;;;-0.80;99.90;;;;;;5002695;28;20050;-76
2022/01/10 08:08:19;;;;;;;57.22;21.92;;;-0.90;99.90;;;;;;4989132;28;20105;-77
2022/01/10 08:10:44;;;;;;;62.17;22.23;;;-0.90;99.90;;;;;;5022438;28;20057;-76
2022/01/10 08:13:10;;;;;;;70.75;26.77;;;-0.90;99.90;;;;;;5005898;28;20114;-76
2022/01/10 08:15:36;;;;;;;64.38;24.33;;;-0.80;99.90;;;;;;5004576;28;20447;-76
2022/01/10 08:18:03;;;;;;;61.63;23.85;;;-0.80;99.90;;;;;;4997632;28;20045;-76
2022/01/10 08:20:29;;;;;;;58.70;22.55;;;-0.70;99.90;;;;;;5015093;28;20042;-76
2022/01/10 08:22:55;;;;;;;59.90;22.60;;;-0.70;99.90;;;;;;4984011;28;20057;-76
2022/01/10 08:25:21;;;;;;;63.08;22.95;;;-0.70;99.90;;;;;;5000400;28;20084;-76
2022/01/10 08:27:47;;;;;;;62.33;22.42;;;-0.60;99.90;;;;;;5013426;28;20056;-76
2022/01/10 08:30:13;;;;;;;68.13;22.88;;;-0.70;99.90;;;;;;5009822;28;20132;-76
2022/01/10 08:32:39;;;;;;;62.88;22.05;;;-0.50;99.90;;;;;;5010352;28;20047;-75
2022/01/10 08:35:06;;;;;;;58.15;22.48;;;-0.50;99.90;;;;;;4994701;28;20124;-76
2022/01/10 08:37:31;;;;;;;61.55;23.15;;;-0.60;99.90;;;;;;4994171;28;20479;-76
2022/01/10 08:39:57;;;;;;;65.03;22.73;;;-0.60;99.90;;;;;;5012774;28;20046;-76
2022/01/10 08:42:24;;;;;;;59.85;23.10;;;-0.50;99.90;;;;;;5012013;28;20086;-76
2022/01/10 08:44:50;;;;;;;65.85;23.70;;;-0.50;99.90;;;;;;4994839;28;20061;-76
2022/01/10 08:47:16;;;;;;;64.18;24.38;;;-0.30;99.90;;;;;;4994053;28;20126;-76
2022/01/10 08:49:42;;;;;;;70.75;24.35;;;-0.30;99.90;;;;;;4992787;28;20475;-76
2022/01/10 08:52:09;;;;;;;69.85;24.63;;;-0.20;99.90;;;;;;5009354;28;20054;-76
2022/01/10 08:54:35;;;;;;;73.40;24.52;;;-0.20;99.90;;;;;;5008870;28;20065;-76
2022/01/10 08:57:01;;;;;;;105.63;33.55;;;-0.20;99.90;;;;;;4976388;28;20046;-76
2022/01/10 08:59:28;;;;;;;71.37;24.63;;;-0.10;99.90;;;;;;4994087;28;20050;-77
2022/01/10 09:01:56;;;;;;;65.00;24.63;;;-0.10;99.90;;;;;;4992916;28;20289;-75
2022/01/10 09:04:22;;;;;;;72.13;25.42;;;0.00;99.90;;;;;;5008979;28;20368;-77
2022/01/10 09:06:50;;;;;;;99.07;32.65;;;0.00;99.90;;;;;;4992024;28;20125;-75
2022/01/10 09:09:17;;;;;;;84.68;29.92;;;0.10;99.90;;;;;;5009421;28;20523;-76
2022/01/10 09:11:44;;;;;;;77.65;28.05;;;0.10;99.90;;;;;;5009019;28;20054;-76
2022/01/10 09:14:10;;;;;;;64.10;25.15;;;0.10;99.90;;;;;;5008747;28;20121;-76
2022/01/10 09:16:37;;;;;;;68.90;26.17;;;0.20;99.90;;;;;;4975723;28;20078;-76
2022/01/10 09:19:03;;;;;;;75.57;25.38;;;0.20;99.90;;;;;;4993472;28;20046;-76
2022/01/10 09:21:29;;;;;;;67.60;24.83;;;0.30;99.90;;;;;;4992152;28;20313;-76
2022/01/10 09:23:55;;;;;;;62.30;24.08;;;0.30;99.90;;;;;;4993162;28;20133;-75
2022/01/10 09:26:22;;;;;;;72.97;24.33;;;0.30;99.90;;;;;;4991970;28;20048;-76
2022/01/10 09:28:47;;;;;;;64.87;24.50;;;0.30;99.90;;;;;;5008183;28;20046;-76
2022/01/10 09:31:14;;;;;;;54.83;22.08;;;0.40;99.90;;;;;;4992087;28;20293;-75
2022/01/10 09:33:41;;;;;;;61.72;23.02;;;0.40;99.90;;;;;;4991732;28;20050;-75
2022/01/10 09:36:07;;;;;;;56.72;22.35;;;0.40;99.90;;;;;;4993049;28;20055;-75
2022/01/10 09:38:33;;;;;;;61.65;23.10;;;0.40;99.90;;;;;;4992546;28;20054;-75
2022/01/10 09:41:00;;;;;;;67.03;23.92;;;0.50;99.90;;;;;;4994621;28;20344;-76
2022/01/10 09:43:25;;;;;;;60.58;25.48;;;0.50;99.90;;;;;;4996188;28;20057;-76
2022/01/10 09:45:53;;;;;;;69.18;27.17;;;0.50;99.90;;;;;;5008425;28;20369;-76
2022/01/10 09:48:19;;;;;;;68.50;25.83;;;0.50;99.90;;;;;;4993313;28;20152;-76
2022/01/10 09:50:45;;;;;;;68.07;26.25;;;0.50;99.90;;;;;;5008178;28;20058;-76
2022/01/10 09:53:12;;;;;;;65.97;25.08;;;0.50;99.90;;;;;;4994134;28;20562;-76
2022/01/10 09:55:38;;;;;;;52.17;20.85;;;0.60;99.90;;;;;;5007854;28;20054;-76
2022/01/10 09:58:04;;;;;;;59.33;22.92;;;0.70;99.90;;;;;;4996353;28;20054;-76
2022/01/10 10:00:31;;;;;;;62.25;24.08;;;0.70;99.90;;;;;;5008579;28;20054;-76
2022/01/10 10:02:56;;;;;;;69.28;27.35;;;0.70;99.90;;;;;;4993013;28;20081;-76
2022/01/10 10:05:23;;;;;;;62.45;27.25;;;0.90;99.90;;;;;;4991870;28;20054;-76
2022/01/10 10:07:50;;;;;;;68.32;27.58;;;0.80;99.90;;;;;;4993325;28;20054;-75
2022/01/10 10:10:17;;;;;;;70.80;27.95;;;0.80;99.90;;;;;;5008464;28;20419;-76
2022/01/10 10:12:48;;;;;;;74.40;28.70;;;0.90;99.90;;;;;;4992301;28;20436;-76
2022/01/10 10:15:16;;;;;;;68.63;28.88;;;0.90;99.90;;;;;;4993355;28;20046;-75
2022/01/10 10:17:43;;;;;;;76.07;31.58;;;1.00;99.90;;;;;;5007675;28;20080;-74
2022/01/10 10:20:15;;;;;;;84.70;30.95;;;1.10;99.90;;;;;;4979141;28;20058;-75
2022/01/10 10:22:46;;;;;;;86.13;30.20;;;1.20;99.90;;;;;;5011656;28;20058;-75
2022/01/10 10:25:13;;;;;;;80.95;30.55;;;1.20;99.90;;;;;;5011403;28;20054;-74
2022/01/10 10:27:43;;;;;;;81.13;31.00;;;1.30;99.90;;;;;;4996125;28;20049;-74
2022/01/10 10:30:18;;;;;;;65.82;30.83;;;1.30;99.90;;;;;;4996843;28;20078;-74
2022/01/10 10:32:44;;;;;;;72.28;31.00;;;1.40;99.90;;;;;;5011268;28;20054;-75
2022/01/10 10:35:10;;;;;;;67.63;28.73;;;1.40;99.90;;;;;;5011331;28;20097;-74
2022/01/10 10:37:41;;;;;;;77.45;31.48;;;1.40;99.90;;;;;;4995975;28;20062;-75
2022/01/10 10:40:10;;;;;;;73.57;33.15;;;1.40;99.90;;;;;;4995856;28;20097;-75
2022/01/10 10:42:40;;;;;;;70.43;31.33;;;1.60;99.90;;;;;;4996213;28;20089;-75
2022/01/10 10:45:08;;;;;;;70.57;31.38;;;1.60;99.90;;;;;;4995761;28;20050;-75
2022/01/10 10:47:42;;;;;;;79.60;32.90;;;1.60;99.90;;;;;;4994497;28;20038;-76
2022/01/10 10:50:10;;;;;;;82.25;32.38;;;1.70;99.90;;;;;;4996086;28;20081;-75
2022/01/10 10:52:38;;;;;;;76.18;31.13;;;1.70;99.90;;;;;;4995956;28;20089;-75
2022/01/10 10:55:07;;;;;;;75.70;31.15;;;1.70;99.90;;;;;;4977615;28;20538;-76
2022/01/10 10:57:32;;;;;;;76.60;33.30;;;1.80;99.90;;;;;;4978151;28;20050;-76
2022/01/10 11:00:05;;;;;;;72.18;31.55;;;1.80;99.90;;;;;;4995693;28;20194;-76
2022/01/10 11:02:30;;;;;;;71.10;29.92;;;1.90;99.90;;;;;;4996243;28;20050;-75
2022/01/10 11:04:58;;;;;;;78.63;31.27;;;1.90;99.90;;;;;;5010161;28;20402;-75
2022/01/10 11:07:27;;;;;;;82.15;32.03;;;2.00;99.90;;;;;;4995604;28;20056;-75
2022/01/10 11:09:53;;;;;;;86.97;34.20;;;2.00;99.90;;;;;;4995806;28;20128;-75
2022/01/10 11:12:24;;;;;;;78.33;34.03;;;2.10;99.90;;;;;;4995209;28;20042;-75
2022/01/10 11:14:52;;;;;;;75.70;31.92;;;2.20;99.90;;;;;;5010876;28;20061;-75
2022/01/10 11:17:22;;;;;;;82.25;33.63;;;2.20;99.90;;;;;;5010771;28;20053;-75
2022/01/10 11:20:08;;;;;;;81.70;33.72;;;2.20;99.90;;;;;;4995885;28;20046;-75
2022/01/10 11:22:35;;;;;;;82.25;35.55;;;2.30;99.90;;;;;;4995411;28;20053;-75
2022/01/10 11:25:03;;;;;;;72.28;31.65;;;2.40;99.90;;;;;;5010161;28;20073;-76
2022/01/10 11:27:37;;;;;;;78.50;33.30;;;2.40;99.90;;;;;;4995464;28;20120;-75
2022/01/10 11:30:23;;;;;;;83.07;32.97;;;2.50;99.90;;;;;;4998245;28;20053;-75
2022/01/10 11:32:56;;;;;;;85.10;33.33;;;2.60;99.90;;;;;;4996847;28;20058;-75
2022/01/10 11:35:26;;;;;;;83.13;33.78;;;2.60;99.90;;;;;;4994449;28;20038;-75
2022/01/10 11:37:52;;;;;;;81.93;35.25;;;2.70;99.90;;;;;;5009967;28;20062;-75
2022/01/10 11:40:19;;;;;;;71.35;31.80;;;2.60;99.90;;;;;;4993682;28;20038;-76
2022/01/10 11:42:58;;;;;;;81.50;34.80;;;2.60;99.90;;;;;;4995216;28;20138;-76
2022/01/10 11:45:25;;;;;;;72.30;33.15;;;2.70;99.90;;;;;;4977233;28;20105;-76
2022/01/10 11:48:06;;;;;;;;;;;2.70;99.90;;;;;;5010394;28;20104;-76
2022/01/10 11:50:32;;;;;;;72.03;31.00;;;2.70;99.90;;;;;;5010416;28;19921;-76
2022/01/10 11:53:02;;;;;;;84.80;34.85;;;2.80;99.90;;;;;;4995310;28;20050;-76
2022/01/10 11:55:52;;;;;;;74.20;32.65;;;2.80;99.90;;;;;;4994837;28;20057;-75
2022/01/10 11:58:20;;;;;;;72.35;32.08;;;2.80;99.90;;;;;;4995360;28;20439;-76
2022/01/10 12:00:47;;;;;;;78.07;34.00;;;2.90;99.90;;;;;;4995117;28;20173;-75
2022/01/10 12:03:13;;;;;;;74.68;31.55;;;3.00;99.90;;;;;;4994981;28;20050;-75
2022/01/10 12:05:40;;;;;;;71.05;32.85;;;3.00;99.90;;;;;;4995029;28;20057;-76
2022/01/10 12:08:06;;;;;;;74.82;32.08;;;3.00;99.90;;;;;;4994913;28;20053;-76
2022/01/10 12:10:32;;;;;;;78.25;32.92;;;3.00;99.90;;;;;;5009140;28;20510;-75
2022/01/10 12:13:05;;;;;;;72.82;31.40;;;3.10;99.90;;;;;;5009356;28;20061;-76
2022/01/10 12:15:33;;;;;;;80.22;32.33;;;3.20;99.90;;;;;;5009243;28;20046;-75
2022/01/10 12:17:59;;;;;;;;;;;3.20;99.90;;;;;;5009600;28;20046;-76
2022/01/10 12:20:25;;;;;;;79.90;31.33;;;3.30;99.90;;;;;;4993871;28;20020;-77
2022/01/10 12:22:55;;;;;;;81.90;32.80;;;3.30;99.90;;;;;;5009197;28;20061;-77
2022/01/10 12:25:21;;;;;;;74.00;32.38;;;3.30;99.90;;;;;;5009746;28;20439;-77
2022/01/10 12:27:48;;;;;;;76.65;32.90;;;3.30;99.90;;;;;;5009094;28;20121;-76
2022/01/10 12:30:16;;;;;;;68.05;30.92;;;3.30;99.90;;;;;;4992880;28;20229;-76
2022/01/10 12:32:43;;;;;;;74.47;31.58;;;3.30;99.90;;;;;;4993779;28;20062;-76
2022/01/10 12:35:09;;;;;;;71.88;30.80;;;3.30;99.90;;;;;;4994331;28;20046;-76
2022/01/10 12:37:36;;;;;;;62.10;30.25;;;3.40;99.90;;;;;;4994463;28;20078;-77
2022/01/10 12:40:04;;;;;;;65.53;32.25;;;3.30;99.90;;;;;;4993065;28;20141;-76
2022/01/10 12:42:30;;;;;;;68.65;31.35;;;3.30;99.90;;;;;;5008643;28;20104;-76
2022/01/10 12:44:56;;;;;;;67.05;32.13;;;3.40;99.90;;;;;;4994512;28;20050;-76
2022/01/10 12:47:24;;;;;;;74.68;32.25;;;3.40;99.90;;;;;;4994877;28;20038;-76
2022/01/10 12:49:51;;;;;;;69.65;32.10;;;3.40;99.90;;;;;;4993558;28;20206;-76
2022/01/10 12:52:17;;;;;;;58.08;31.02;;;3.40;99.90;;;;;;4993489;28;20058;-76